Time;durP1;ratioP1;P1;durP2;ratioP2;P2;SDS_P1;SDS_P2;PMS_P1;PMS_P2;Temp;Humidity;BMP_temperature;BMP_pressure;BME280_temperature;BME280_humidity;BME280_pressure;Samples;Min_cycle;Max_cycle;Signal;HPM_P1;HPM_P2
2024/03/19 00:00:12;;;;;;;1.80;1.00;;;;;;;;;;6321274;28;20439;-78
2024/03/19 00:03:12;;;;;;;1.52;1.10;;;;;;;;;;6315663;28;20121;-78
2024/03/19 00:06:12;;;;;;;2.03;1.30;;;;;;;;;;6315440;28;20456;-78
2024/03/19 00:09:12;;;;;;;2.10;0.97;;;;;;;;;;6315726;28;20378;-78
2024/03/19 00:12:13;;;;;;;1.50;0.90;;;;;;;;;;6317095;28;20016;-78
2024/03/19 00:15:13;;;;;;;1.87;1.03;;;;;;;;;;6297200;28;20065;-78
2024/03/19 00:18:13;;;;;;;1.53;1.03;;;;;;;;;;6318556;28;20090;-77
2024/03/19 00:21:14;;;;;;;1.40;1.00;;;;;;;;;;6301875;28;20422;-78
2024/03/19 00:24:14;;;;;;;1.20;0.95;;;;;;;;;;6299817;28;20450;-78
2024/03/19 00:27:15;;;;;;;1.23;0.93;;;;;;;;;;6320220;28;20080;-78
2024/03/19 00:30:16;;;;;;;1.67;0.90;;;;;;;;;;6316083;28;20422;-77
2024/03/19 00:33:16;;;;;;;1.80;1.40;;;;;;;;;;6316989;28;20608;-79
2024/03/19 00:36:17;;;;;;;1.27;1.00;;;;;;;;;;6301254;28;20043;-78
2024/03/19 00:39:21;;;;;;;1.88;1.17;;;;;;;;;;6320872;28;20083;-77
2024/03/19 00:42:22;;;;;;;1.42;1.10;;;;;;;;;;6319780;28;20020;-77
2024/03/19 00:45:23;;;;;;;1.53;1.20;;;;;;;;;;6319802;28;20492;-77
2024/03/19 00:48:23;;;;;;;1.90;1.15;;;;;;;;;;6296203;28;20031;-78
2024/03/19 00:51:23;;;;;;;1.33;1.23;;;;;;;;;;6298348;28;20389;-77
2024/03/19 00:54:23;;;;;;;2.03;1.13;;;;;;;;;;6317603;28;20024;-78
2024/03/19 00:57:24;;;;;;;1.60;1.10;;;;;;;;;;6320910;28;20114;-78
2024/03/19 01:00:24;;;;;;;1.10;1.00;;;;;;;;;;6306960;28;20169;-78
2024/03/19 01:03:24;;;;;;;1.77;1.10;;;;;;;;;;6307460;28;20039;-78
2024/03/19 01:06:25;;;;;;;1.67;0.97;;;;;;;;;;6327913;28;20027;-78
2024/03/19 01:09:27;;;;;;;1.45;1.20;;;;;;;;;;6324795;28;20077;-78
2024/03/19 01:12:27;;;;;;;1.38;1.13;;;;;;;;;;6327696;28;20039;-77
2024/03/19 01:15:29;;;;;;;1.95;1.10;;;;;;;;;;6327972;28;20023;-78
2024/03/19 01:18:30;;;;;;;1.10;1.00;;;;;;;;;;6300848;28;20165;-77
2024/03/19 01:21:30;;;;;;;1.00;0.90;;;;;;;;;;6324426;28;20464;-78
2024/03/19 01:24:30;;;;;;;1.90;0.83;;;;;;;;;;6328307;28;20431;-78
2024/03/19 01:27:30;;;;;;;1.13;1.00;;;;;;;;;;6324689;28;20044;-77
2024/03/19 01:30:31;;;;;;;1.57;1.20;;;;;;;;;;6327185;28;20537;-78
2024/03/19 01:33:31;;;;;;;0.93;0.90;;;;;;;;;;6325662;28;20490;-78
2024/03/19 01:36:31;;;;;;;1.27;0.90;;;;;;;;;;6327496;28;20104;-78
2024/03/19 01:39:32;;;;;;;1.43;1.07;;;;;;;;;;6301823;28;20057;-77
2024/03/19 01:42:32;;;;;;;1.63;1.10;;;;;;;;;;6326591;28;20028;-78
2024/03/19 01:45:33;;;;;;;1.53;0.93;;;;;;;;;;6306542;28;20147;-78
2024/03/19 01:48:33;;;;;;;1.25;0.90;;;;;;;;;;6323292;28;20795;-78
2024/03/19 01:51:34;;;;;;;1.13;0.97;;;;;;;;;;6327184;28;20139;-78
2024/03/19 01:54:35;;;;;;;1.95;1.00;;;;;;;;;;6328136;28;20380;-78
2024/03/19 01:57:36;;;;;;;1.63;1.27;;;;;;;;;;6324262;28;20467;-78
2024/03/19 02:00:36;;;;;;;1.40;1.07;;;;;;;;;;6326752;28;20032;-77
2024/03/19 02:03:37;;;;;;;2.40;0.90;;;;;;;;;;6323307;28;20018;-77
2024/03/19 02:06:37;;;;;;;1.15;1.05;;;;;;;;;;6325532;28;20025;-79
2024/03/19 02:09:38;;;;;;;1.70;1.10;;;;;;;;;;6324596;28;20121;-78
2024/03/19 02:12:38;;;;;;;1.15;1.00;;;;;;;;;;6322900;28;20047;-78
2024/03/19 02:15:38;;;;;;;0.93;0.83;;;;;;;;;;6322907;28;20035;-78
2024/03/19 02:18:39;;;;;;;1.13;1.00;;;;;;;;;;6320690;28;20041;-77
2024/03/19 02:21:39;;;;;;;1.07;0.90;;;;;;;;;;6320038;28;20016;-78
2024/03/19 02:24:41;;;;;;;0.97;0.90;;;;;;;;;;6302949;28;20020;-78
2024/03/19 02:27:41;;;;;;;1.40;0.95;;;;;;;;;;6296809;28;20451;-78
2024/03/19 02:30:41;;;;;;;1.27;1.10;;;;;;;;;;6294534;28;20024;-77
2024/03/19 02:33:42;;;;;;;1.37;0.97;;;;;;;;;;6295744;28;20111;-78
2024/03/19 02:36:42;;;;;;;1.33;0.90;;;;;;;;;;6294329;28;20566;-78
2024/03/19 02:39:44;;;;;;;1.23;1.00;;;;;;;;;;6298207;28;20024;-77
2024/03/19 02:42:44;;;;;;;1.73;1.00;;;;;;;;;;6295991;28;20387;-78
2024/03/19 02:45:44;;;;;;;1.40;1.17;;;;;;;;;;6297951;28;20028;-77
2024/03/19 02:48:44;;;;;;;1.80;1.00;;;;;;;;;;6292237;28;20029;-78
2024/03/19 02:51:46;;;;;;;1.10;1.00;;;;;;;;;;6297830;28;20111;-78
2024/03/19 02:54:46;;;;;;;1.60;1.15;;;;;;;;;;6296781;28;20563;-78
2024/03/19 02:57:46;;;;;;;1.10;1.00;;;;;;;;;;6295074;28;20028;-77
2024/03/19 03:00:47;;;;;;;1.43;1.07;;;;;;;;;;6293622;28;20437;-77
2024/03/19 03:03:47;;;;;;;1.07;0.97;;;;;;;;;;6293051;28;20549;-78
2024/03/19 03:06:47;;;;;;;1.63;1.23;;;;;;;;;;6296967;28;20036;-78
2024/03/19 03:09:47;;;;;;;1.73;1.23;;;;;;;;;;6297263;28;20032;-78
2024/03/19 03:12:48;;;;;;;1.57;1.20;;;;;;;;;;6297099;28;20029;-78
2024/03/19 03:15:48;;;;;;;1.83;1.30;;;;;;;;;;6289255;28;20059;-78
2024/03/19 03:18:48;;;;;;;1.63;1.30;;;;;;;;;;6294071;28;20040;-77
2024/03/19 03:21:49;;;;;;;1.40;1.27;;;;;;;;;;6293232;28;20051;-78
2024/03/19 03:24:50;;;;;;;1.40;1.20;;;;;;;;;;6289731;28;20377;-78
2024/03/19 03:27:51;;;;;;;1.73;1.27;;;;;;;;;;6316667;28;20061;-78
2024/03/19 03:30:51;;;;;;;1.65;1.10;;;;;;;;;;6321125;28;21264;-77
2024/03/19 03:33:51;;;;;;;1.50;1.30;;;;;;;;;;6318901;28;20314;-77
2024/03/19 03:36:51;;;;;;;1.40;1.10;;;;;;;;;;6320876;28;20028;-78
2024/03/19 03:39:52;;;;;;;1.60;1.30;;;;;;;;;;6321159;28;20028;-77
2024/03/19 03:42:52;;;;;;;1.57;1.27;;;;;;;;;;6318958;28;20032;-77
2024/03/19 03:45:52;;;;;;;1.30;1.13;;;;;;;;;;6303958;28;20425;-77
2024/03/19 03:48:52;;;;;;;2.00;1.20;;;;;;;;;;6319192;28;20557;-77
2024/03/19 03:51:53;;;;;;;1.50;1.27;;;;;;;;;;6320754;28;20524;-77
2024/03/19 03:54:53;;;;;;;1.60;1.00;;;;;;;;;;6318921;28;20032;-77
2024/03/19 03:57:53;;;;;;;1.77;1.03;;;;;;;;;;6319123;28;20024;-77
2024/03/19 04:00:54;;;;;;;1.13;0.97;;;;;;;;;;6317032;28;20016;-78
2024/03/19 04:03:55;;;;;;;1.67;1.20;;;;;;;;;;6300637;28;20089;-78
2024/03/19 04:06:55;;;;;;;1.57;1.30;;;;;;;;;;6318751;28;20056;-77
2024/03/19 04:09:55;;;;;;;1.67;1.10;;;;;;;;;;6301895;28;20487;-77
2024/03/19 04:12:55;;;;;;;2.10;1.47;;;;;;;;;;6318828;28;20035;-78
2024/03/19 04:15:56;;;;;;;1.17;1.07;;;;;;;;;;6293419;28;20032;-78
2024/03/19 04:18:57;;;;;;;1.55;1.40;;;;;;;;;;6312408;28;20023;-78
2024/03/19 04:21:57;;;;;;;2.33;1.30;;;;;;;;;;6319855;28;20067;-78
2024/03/19 04:24:58;;;;;;;2.17;1.27;;;;;;;;;;6320012;28;20069;-78
2024/03/19 04:27:58;;;;;;;1.37;1.27;;;;;;;;;;6290128;28;20067;-78
2024/03/19 04:30:58;;;;;;;1.40;1.30;;;;;;;;;;6293641;28;20047;-77
2024/03/19 04:33:58;;;;;;;2.23;1.43;;;;;;;;;;6291643;28;20491;-78
2024/03/19 04:36:59;;;;;;;2.23;1.47;;;;;;;;;;6294354;28;20784;-78
2024/03/19 04:39:59;;;;;;;1.63;1.23;;;;;;;;;;6294849;28;20064;-78
2024/03/19 04:42:59;;;;;;;1.90;1.50;;;;;;;;;;6294471;28;20075;-77
2024/03/19 04:45:59;;;;;;;2.13;1.43;;;;;;;;;;6290919;28;20025;-78
2024/03/19 04:49:00;;;;;;;1.27;1.17;;;;;;;;;;6284347;28;20036;-78
2024/03/19 04:52:00;;;;;;;1.83;1.60;;;;;;;;;;6289705;28;20032;-78
2024/03/19 04:55:02;;;;;;;1.37;1.27;;;;;;;;;;6289501;28;20028;-77
2024/03/19 04:58:02;;;;;;;1.85;1.45;;;;;;;;;;6293717;28;20032;-77
2024/03/19 05:01:02;;;;;;;2.10;1.60;;;;;;;;;;6290361;28;20078;-78
2024/03/19 05:04:02;;;;;;;1.53;1.33;;;;;;;;;;6287440;28;20054;-78
2024/03/19 05:07:03;;;;;;;1.23;1.13;;;;;;;;;;6290911;28;20031;-77
2024/03/19 05:10:03;;;;;;;1.77;1.43;;;;;;;;;;6293394;28;20381;-77
2024/03/19 05:13:04;;;;;;;2.10;1.47;;;;;;;;;;6292448;28;20052;-77
2024/03/19 05:16:05;;;;;;;1.63;1.20;;;;;;;;;;6294375;28;20531;-77
2024/03/19 05:19:06;;;;;;;1.60;1.37;;;;;;;;;;6291915;28;20029;-77
2024/03/19 05:22:06;;;;;;;1.90;1.40;;;;;;;;;;6291887;28;20028;-78
2024/03/19 05:25:06;;;;;;;1.50;1.40;;;;;;;;;;6293166;28;20055;-77
2024/03/19 05:28:07;;;;;;;2.30;1.40;;;;;;;;;;6310499;28;20512;-78
2024/03/19 05:31:26;;;;;;;1.67;1.40;;;;;;;;;;6300187;28;20016;-77
2024/03/19 05:34:27;;;;;;;1.88;1.48;;;;;;;;;;6294468;28;20033;-77
2024/03/19 05:37:27;;;;;;;1.63;1.40;;;;;;;;;;6315646;28;20115;-77
2024/03/19 05:40:27;;;;;;;2.63;2.00;;;;;;;;;;6315234;28;20150;-78
2024/03/19 05:43:27;;;;;;;2.80;2.00;;;;;;;;;;6320044;28;20043;-78
2024/03/19 05:46:28;;;;;;;2.70;1.87;;;;;;;;;;6324432;28;20066;-78
2024/03/19 05:49:28;;;;;;;2.23;1.77;;;;;;;;;;6322164;28;20020;-77
2024/03/19 05:52:29;;;;;;;2.50;1.83;;;;;;;;;;6322216;28;20027;-77
2024/03/19 05:55:29;;;;;;;3.83;1.63;;;;;;;;;;6321591;28;20039;-77
2024/03/19 05:58:29;;;;;;;2.13;1.70;;;;;;;;;;6320642;28;20504;-79
2024/03/19 06:01:30;;;;;;;2.37;1.97;;;;;;;;;;6318524;28;20043;-77
2024/03/19 06:04:30;;;;;;;2.47;1.70;;;;;;;;;;6320955;28;20016;-77
2024/03/19 06:07:32;;;;;;;2.08;1.75;;;;;;;;;;6324192;28;20472;-78
2024/03/19 06:10:32;;;;;;;2.13;1.83;;;;;;;;;;6320490;28;20081;-77
2024/03/19 06:13:33;;;;;;;1.90;1.63;;;;;;;;;;6321376;28;20035;-78
2024/03/19 06:16:34;;;;;;;3.35;1.75;;;;;;;;;;6323996;28;20493;-79
2024/03/19 06:19:34;;;;;;;3.10;1.80;;;;;;;;;;6317950;28;20100;-79
2024/03/19 06:22:34;;;;;;;2.80;1.87;;;;;;;;;;6319698;28;20027;-79
2024/03/19 06:25:35;;;;;;;2.30;1.83;;;;;;;;;;6301246;28;20031;-78
2024/03/19 06:28:35;;;;;;;2.03;1.83;;;;;;;;;;6319237;28;20157;-79
2024/03/19 06:31:35;;;;;;;3.57;2.27;;;;;;;;;;6322410;28;20021;-79
2024/03/19 06:34:36;;;;;;;2.50;2.30;;;;;;;;;;6320493;28;20024;-78
2024/03/19 06:37:36;;;;;;;2.07;1.87;;;;;;;;;;6322284;28;20036;-79
2024/03/19 06:40:36;;;;;;;3.30;1.90;;;;;;;;;;6298756;28;20035;-78
2024/03/19 06:43:36;;;;;;;2.67;2.07;;;;;;;;;;6317197;28;20020;-79
2024/03/19 06:46:37;;;;;;;2.40;1.90;;;;;;;;;;6319575;28;20023;-79
2024/03/19 06:49:37;;;;;;;3.27;2.30;;;;;;;;;;6315048;28;20020;-79
2024/03/19 06:52:37;;;;;;;3.07;2.10;;;;;;;;;;6303973;28;20112;-78
2024/03/19 06:55:38;;;;;;;3.10;2.33;;;;;;;;;;6297810;28;20074;-78
2024/03/19 06:58:38;;;;;;;2.70;2.20;;;;;;;;;;6303085;28;20034;-77
2024/03/19 07:01:38;;;;;;;3.23;1.93;;;;;;;;;;6321064;28;20020;-78
2024/03/19 07:04:39;;;;;;;2.53;2.00;;;;;;;;;;6318469;28;20012;-78
2024/03/19 07:07:39;;;;;;;3.20;2.43;;;;;;;;;;6321665;28;20024;-77
2024/03/19 07:10:39;;;;;;;3.20;2.40;;;;;;;;;;6322802;28;20058;-77
2024/03/19 07:13:40;;;;;;;3.00;2.27;;;;;;;;;;6318828;28;20031;-77
2024/03/19 07:16:40;;;;;;;3.33;2.40;;;;;;;;;;6300019;28;20024;-76
2024/03/19 07:19:40;;;;;;;2.50;2.20;;;;;;;;;;6317703;28;20051;-77
2024/03/19 07:22:41;;;;;;;2.70;2.50;;;;;;;;;;6317015;28;20110;-76
2024/03/19 07:25:41;;;;;;;5.03;2.37;;;;;;;;;;6312010;28;20028;-76
2024/03/19 07:28:41;;;;;;;2.87;2.20;;;;;;;;;;6323498;28;20031;-76
2024/03/19 07:31:42;;;;;;;2.83;2.40;;;;;;;;;;6322672;28;20020;-77
2024/03/19 07:34:43;;;;;;;2.38;2.15;;;;;;;;;;6304418;28;20461;-76
2024/03/19 07:37:43;;;;;;;3.30;2.77;;;;;;;;;;6308458;28;20040;-76
2024/03/19 07:40:43;;;;;;;3.30;2.53;;;;;;;;;;6308626;28;20036;-76
2024/03/19 07:43:44;;;;;;;4.73;3.40;;;;;;;;;;6320270;28;20460;-77
2024/03/19 07:46:44;;;;;;;4.30;3.07;;;;;;;;;;6298192;28;20571;-77
2024/03/19 07:49:45;;;;;;;3.40;2.90;;;;;;;;;;6322057;28;20023;-76
2024/03/19 07:52:45;;;;;;;4.47;3.10;;;;;;;;;;6319053;28;20036;-75
2024/03/19 07:55:48;;;;;;;2.93;2.53;;;;;;;;;;6320711;28;20388;-76
2024/03/19 07:58:49;;;;;;;3.60;2.67;;;;;;;;;;6316099;28;20031;-76
2024/03/19 08:01:50;;;;;;;;;;;;;;;;;;6319366;28;20039;-76
2024/03/19 08:04:51;;;;;;;3.00;2.40;;;;;;;;;;6319118;28;19908;-75
2024/03/19 08:07:51;;;;;;;3.27;2.70;;;;;;;;;;6301280;28;20500;-75
2024/03/19 08:10:51;;;;;;;3.43;2.97;;;;;;;;;;5960727;28;10001015;-77
2024/03/19 08:13:52;;;;;;;4.10;3.30;;;;;;;;;;6321783;28;20100;-76
2024/03/19 08:16:52;;;;;;;4.30;2.90;;;;;;;;;;6315214;28;20031;-75
2024/03/19 08:19:53;;;;;;;4.20;3.13;;;;;;;;;;6310075;28;20016;-76
2024/03/19 08:22:53;;;;;;;4.53;3.57;;;;;;;;;;6322419;28;20045;-75
2024/03/19 08:25:53;;;;;;;4.23;3.63;;;;;;;;;;6321478;28;20067;-76
2024/03/19 08:28:54;;;;;;;3.07;2.60;;;;;;;;;;6307963;28;20110;-75
2024/03/19 08:31:54;;;;;;;3.20;2.30;;;;;;;;;;6308496;28;20103;-75
2024/03/19 08:34:54;;;;;;;3.20;2.17;;;;;;;;;;6313436;28;20516;-77
2024/03/19 08:37:54;;;;;;;3.00;2.40;;;;;;;;;;6304948;28;20028;-77
2024/03/19 08:40:55;;;;;;;3.73;2.23;;;;;;;;;;6316501;28;20181;-77
2024/03/19 08:43:56;;;;;;;2.73;2.17;;;;;;;;;;6301982;28;20027;-77
2024/03/19 08:46:56;;;;;;;2.10;1.67;;;;;;;;;;6318361;28;20066;-77
2024/03/19 08:49:56;;;;;;;1.97;1.63;;;;;;;;;;6304497;28;20031;-77
2024/03/19 08:52:56;;;;;;;1.60;1.40;;;;;;;;;;6322595;28;20024;-77
2024/03/19 08:55:57;;;;;;;1.70;1.60;;;;;;;;;;6322936;28;20074;-77
2024/03/19 08:58:57;;;;;;;1.98;1.55;;;;;;;;;;6322890;28;20016;-77
2024/03/19 09:01:58;;;;;;;1.97;1.73;;;;;;;;;;6318531;28;20043;-78
2024/03/19 09:04:58;;;;;;;2.13;1.87;;;;;;;;;;6279358;28;20346;-77
2024/03/19 09:07:59;;;;;;;2.27;1.60;;;;;;;;;;6315686;28;20032;-78
2024/03/19 09:10:59;;;;;;;2.17;1.63;;;;;;;;;;6324035;28;20024;-77
2024/03/19 09:13:59;;;;;;;3.43;1.80;;;;;;;;;;6298593;28;20465;-77
2024/03/19 09:16:59;;;;;;;1.40;1.30;;;;;;;;;;6298433;28;20059;-78
2024/03/19 09:20:00;;;;;;;1.50;1.37;;;;;;;;;;6305237;28;20024;-78
2024/03/19 09:23:01;;;;;;;1.92;1.50;;;;;;;;;;6328323;28;20020;-78
2024/03/19 09:26:02;;;;;;;2.80;1.83;;;;;;;;;;6327532;28;20514;-78
2024/03/19 09:29:02;;;;;;;2.15;1.83;;;;;;;;;;6327690;28;20422;-78
2024/03/19 09:32:02;;;;;;;3.30;2.03;;;;;;;;;;6326570;28;20491;-78
2024/03/19 09:35:03;;;;;;;2.40;1.83;;;;;;;;;;6298746;28;20036;-78
2024/03/19 09:38:04;;;;;;;3.42;2.00;;;;;;;;;;6316500;28;20055;-78
2024/03/19 09:41:05;;;;;;;2.73;2.23;;;;;;;;;;6326591;28;20028;-78
2024/03/19 09:44:13;;;;;;;2.55;2.13;;;;;;;;;;6326642;28;20056;-78
2024/03/19 09:47:16;;;;;;;1.85;1.67;;;;;;;;;;6323316;28;20047;-76
2024/03/19 09:50:16;;;;;;;3.45;2.33;;;;;;;;;;6305834;28;20511;-76
2024/03/19 09:53:27;;;;;;;2.13;1.93;;;;;;;;;;6306056;28;20050;-76
2024/03/19 09:56:27;;;;;;;2.55;2.33;;;;;;;;;;6300929;28;20029;-77
2024/03/19 09:59:28;;;;;;;2.97;2.53;;;;;;;;;;6283087;28;20029;-76
2024/03/19 10:02:28;;;;;;;3.20;2.30;;;;;;;;;;6300485;28;20017;-76
2024/03/19 10:05:28;;;;;;;2.80;2.40;;;;;;;;;;6316594;28;20486;-76
2024/03/19 10:08:29;;;;;;;2.53;1.83;;;;;;;;;;6321168;28;20023;-76
2024/03/19 10:11:29;;;;;;;3.47;2.30;;;;;;;;;;6307880;28;20094;-76
2024/03/19 10:14:32;;;;;;;2.77;2.30;;;;;;;;;;6322575;28;20115;-76
2024/03/19 10:17:32;;;;;;;2.85;2.17;;;;;;;;;;6318709;28;20035;-76
2024/03/19 10:20:42;;;;;;;3.03;2.30;;;;;;;;;;6319479;28;20102;-76
2024/03/19 10:23:43;;;;;;;2.67;2.20;;;;;;;;;;6325780;28;20020;-75
2024/03/19 10:26:44;;;;;;;3.03;2.47;;;;;;;;;;6315062;28;20048;-75
2024/03/19 10:29:47;;;;;;;2.90;2.45;;;;;;;;;;6324521;28;20036;-74
2024/03/19 10:32:50;;;;;;;3.05;2.38;;;;;;;;;;6318696;28;20032;-75
2024/03/19 10:35:51;;;;;;;2.72;2.38;;;;;;;;;;6323418;28;20032;-75
2024/03/19 10:38:52;;;;;;;2.88;2.45;;;;;;;;;;6324775;28;20075;-75
2024/03/19 10:41:52;;;;;;;2.70;2.40;;;;;;;;;;6319322;28;20028;-75
2024/03/19 10:44:52;;;;;;;2.73;2.17;;;;;;;;;;6305401;28;20019;-75
2024/03/19 10:47:53;;;;;;;3.37;2.50;;;;;;;;;;6321744;28;20058;-75
2024/03/19 10:50:53;;;;;;;3.43;2.13;;;;;;;;;;6323512;28;20023;-75
2024/03/19 10:53:55;;;;;;;3.10;2.40;;;;;;;;;;6323124;28;20020;-75
2024/03/19 10:56:57;;;;;;;2.35;2.10;;;;;;;;;;6299796;28;20037;-74
2024/03/19 10:59:58;;;;;;;3.22;2.58;;;;;;;;;;6300370;28;20111;-75
2024/03/19 11:02:59;;;;;;;2.73;2.53;;;;;;;;;;6298659;28;20149;-75
2024/03/19 11:06:05;;;;;;;3.72;2.70;;;;;;;;;;6317245;28;20020;-75
2024/03/19 11:09:19;;;;;;;2.65;2.40;;;;;;;;;;6324336;28;20028;-75
2024/03/19 11:12:22;;;;;;;3.00;2.33;;;;;;;;;;6319225;28;20024;-75
2024/03/19 11:15:23;;;;;;;3.40;2.92;;;;;;;;;;6305519;28;20031;-75
2024/03/19 11:18:24;;;;;;;2.75;2.25;;;;;;;;;;6302014;28;20027;-75
2024/03/19 11:21:25;;;;;;;3.25;2.50;;;;;;;;;;6302913;28;20421;-75
2024/03/19 11:24:31;;;;;;;2.80;2.58;;;;;;;;;;6305908;28;20301;-75
2024/03/19 11:27:33;;;;;;;2.95;2.58;;;;;;;;;;6325471;28;20059;-75
2024/03/19 11:30:33;;;;;;;2.67;2.47;;;;;;;;;;6324777;28;20389;-75
2024/03/19 11:33:36;;;;;;;2.87;2.37;;;;;;;;;;6317738;28;20041;-74
2024/03/19 11:36:37;;;;;;;4.13;2.63;;;;;;;;;;6324200;28;20096;-76
2024/03/19 11:39:37;;;;;;;3.60;2.37;;;;;;;;;;6321686;28;20043;-77
2024/03/19 11:42:37;;;;;;;3.10;2.43;;;;;;;;;;6307239;28;20161;-77
2024/03/19 11:45:38;;;;;;;3.60;2.50;;;;;;;;;;6325785;28;20099;-77
2024/03/19 11:48:38;;;;;;;3.37;2.77;;;;;;;;;;6321590;28;20410;-77
2024/03/19 11:51:38;;;;;;;3.27;2.30;;;;;;;;;;6307004;28;20024;-77
2024/03/19 11:54:40;;;;;;;2.93;2.40;;;;;;;;;;6298190;28;20111;-76
2024/03/19 11:57:40;;;;;;;3.53;2.67;;;;;;;;;;6280500;28;20703;-77
2024/03/19 12:00:41;;;;;;;4.33;2.17;;;;;;;;;;6298648;28;20028;-77
2024/03/19 12:03:41;;;;;;;2.55;2.10;;;;;;;;;;6299793;28;20016;-77
2024/03/19 12:06:44;;;;;;;3.03;2.40;;;;;;;;;;6321597;28;20028;-77
2024/03/19 12:09:44;;;;;;;3.95;2.55;;;;;;;;;;6314957;28;20031;-76
2024/03/19 12:12:44;;;;;;;2.60;2.40;;;;;;;;;;6322757;28;20035;-76
2024/03/19 12:15:45;;;;;;;2.77;2.37;;;;;;;;;;6323438;28;20101;-76
2024/03/19 12:18:45;;;;;;;3.07;2.53;;;;;;;;;;6321400;28;20106;-77
2024/03/19 12:21:48;;;;;;;2.80;2.47;;;;;;;;;;6322684;28;20069;-77
2024/03/19 12:24:48;;;;;;;2.55;2.35;;;;;;;;;;6295921;28;20078;-77
2024/03/19 12:27:48;;;;;;;3.80;2.33;;;;;;;;;;6285970;28;20043;-77
2024/03/19 12:30:49;;;;;;;2.83;2.37;;;;;;;;;;6323062;28;20019;-77
2024/03/19 12:34:05;;;;;;;3.37;2.50;;;;;;;;;;6320228;28;20126;-77
2024/03/19 12:37:06;;;;;;;2.97;2.45;;;;;;;;;;6322423;28;20059;-77
2024/03/19 12:40:11;;;;;;;3.22;2.65;;;;;;;;;;6322194;28;20024;-76
2024/03/19 12:43:11;;;;;;;2.55;2.30;;;;;;;;;;6321825;28;20039;-77
2024/03/19 12:46:12;;;;;;;2.93;2.53;;;;;;;;;;6322391;28;20416;-77
2024/03/19 12:49:12;;;;;;;2.77;2.23;;;;;;;;;;6320909;28;20017;-77
2024/03/19 12:52:12;;;;;;;2.70;2.33;;;;;;;;;;6321982;28;20028;-76
2024/03/19 12:55:15;;;;;;;3.00;2.43;;;;;;;;;;6320968;28;20023;-76
2024/03/19 12:58:15;;;;;;;2.72;2.20;;;;;;;;;;6301589;28;20527;-77
2024/03/19 13:01:16;;;;;;;2.67;2.23;;;;;;;;;;6297084;28;20025;-77
2024/03/19 13:04:17;;;;;;;;;;;;;;;;;;6295518;28;20051;-77
2024/03/19 13:07:17;;;;;;;2.40;1.80;;;;;;;;;;6297738;28;19936;-77
2024/03/19 13:10:20;;;;;;;2.33;2.03;;;;;;;;;;6304441;28;20015;-77
2024/03/19 13:13:21;;;;;;;2.00;1.80;;;;;;;;;;6320790;28;20058;-77
2024/03/19 13:16:21;;;;;;;3.00;2.20;;;;;;;;;;6309936;28;20024;-77
2024/03/19 13:19:21;;;;;;;3.00;2.40;;;;;;;;;;6303740;28;20027;-77
2024/03/19 13:22:22;;;;;;;3.17;2.60;;;;;;;;;;6321912;28;20020;-77
2024/03/19 13:25:22;;;;;;;2.30;2.10;;;;;;;;;;6322216;28;20457;-77
2024/03/19 13:28:22;;;;;;;2.50;2.23;;;;;;;;;;6321639;28;20048;-77
2024/03/19 13:31:22;;;;;;;3.37;2.00;;;;;;;;;;6321438;28;20016;-77
2024/03/19 13:34:23;;;;;;;2.50;1.87;;;;;;;;;;6313238;28;20364;-77
2024/03/19 13:37:23;;;;;;;2.67;1.90;;;;;;;;;;6318818;28;20085;-77
2024/03/19 13:40:23;;;;;;;2.47;2.00;;;;;;;;;;6319982;28;20020;-77
2024/03/19 13:43:23;;;;;;;3.93;2.03;;;;;;;;;;6322519;28;20049;-77
2024/03/19 13:46:24;;;;;;;2.23;1.83;;;;;;;;;;6321742;28;20016;-77
2024/03/19 13:49:28;;;;;;;1.90;1.70;;;;;;;;;;6301499;28;20028;-77
2024/03/19 13:52:29;;;;;;;2.22;1.55;;;;;;;;;;6303403;28;20028;-76
2024/03/19 13:55:31;;;;;;;2.35;2.15;;;;;;;;;;6302467;28;20036;-77
2024/03/19 13:58:32;;;;;;;2.10;1.70;;;;;;;;;;6321933;28;20112;-77
2024/03/19 14:01:32;;;;;;;2.83;2.03;;;;;;;;;;6321381;28;20028;-77
2024/03/19 14:04:32;;;;;;;3.60;1.80;;;;;;;;;;6301648;28;20027;-77
2024/03/19 14:07:34;;;;;;;3.50;2.17;;;;;;;;;;6312114;28;20024;-77
2024/03/19 14:10:37;;;;;;;3.70;2.08;;;;;;;;;;6283386;28;20047;-77
2024/03/19 14:13:37;;;;;;;2.25;2.03;;;;;;;;;;6317933;28;20032;-77
2024/03/19 14:16:37;;;;;;;3.30;1.97;;;;;;;;;;6326710;28;20016;-77
2024/03/19 14:19:38;;;;;;;2.23;1.97;;;;;;;;;;6325334;28;20016;-77
2024/03/19 14:22:41;;;;;;;3.00;2.57;;;;;;;;;;6325859;28;20072;-77
2024/03/19 14:25:41;;;;;;;2.33;2.13;;;;;;;;;;6302648;28;20024;-77
2024/03/19 14:28:41;;;;;;;2.67;2.03;;;;;;;;;;6320743;28;20448;-77
2024/03/19 14:31:42;;;;;;;2.20;1.93;;;;;;;;;;6316386;28;20477;-77
2024/03/19 14:34:42;;;;;;;2.60;2.07;;;;;;;;;;6324205;28;20161;-77
2024/03/19 14:37:42;;;;;;;2.93;2.07;;;;;;;;;;6325810;28;20496;-77
2024/03/19 14:40:42;;;;;;;2.67;2.10;;;;;;;;;;6319514;28;20051;-77
2024/03/19 14:43:45;;;;;;;3.10;2.13;;;;;;;;;;6323121;28;20028;-77
2024/03/19 14:46:45;;;;;;;3.10;2.35;;;;;;;;;;6324907;28;20024;-77
2024/03/19 14:49:45;;;;;;;2.37;2.13;;;;;;;;;;6324438;28;20437;-77
2024/03/19 14:52:46;;;;;;;2.67;2.00;;;;;;;;;;6325223;28;20518;-77
2024/03/19 14:55:46;;;;;;;1.90;1.80;;;;;;;;;;6325306;28;20028;-77
2024/03/19 14:58:46;;;;;;;2.53;1.90;;;;;;;;;;6312540;28;20027;-77
2024/03/19 15:01:47;;;;;;;2.90;2.17;;;;;;;;;;6324819;28;20028;-77
2024/03/19 15:04:47;;;;;;;3.45;2.10;;;;;;;;;;6323521;28;20023;-77
2024/03/19 15:07:48;;;;;;;2.83;1.93;;;;;;;;;;6324879;28;20024;-77
2024/03/19 15:10:48;;;;;;;2.60;2.07;;;;;;;;;;6325061;28;20250;-77
2024/03/19 15:13:48;;;;;;;2.23;1.93;;;;;;;;;;6324207;28;20066;-77
2024/03/19 15:16:48;;;;;;;2.63;2.07;;;;;;;;;;6316559;28;20048;-77
2024/03/19 15:19:49;;;;;;;2.30;2.03;;;;;;;;;;6324309;28;20024;-77
2024/03/19 15:22:49;;;;;;;2.30;1.73;;;;;;;;;;6325033;28;20022;-77
2024/03/19 15:25:49;;;;;;;2.03;1.77;;;;;;;;;;6325871;28;20444;-77
2024/03/19 15:28:50;;;;;;;2.37;1.93;;;;;;;;;;6322071;28;20024;-76
2024/03/19 15:31:51;;;;;;;2.00;1.80;;;;;;;;;;6302873;28;20028;-75
2024/03/19 15:34:51;;;;;;;2.05;1.85;;;;;;;;;;6305854;28;20693;-75
2024/03/19 15:37:51;;;;;;;2.37;1.90;;;;;;;;;;6307408;28;20034;-75
2024/03/19 15:40:52;;;;;;;2.83;2.03;;;;;;;;;;6323637;28;20024;-76
2024/03/19 15:43:52;;;;;;;3.05;1.88;;;;;;;;;;6303710;28;20385;-76
2024/03/19 15:46:52;;;;;;;2.47;1.90;;;;;;;;;;6322378;28;20465;-75
2024/03/19 15:49:53;;;;;;;2.23;1.93;;;;;;;;;;6306102;28;20052;-77
2024/03/19 15:52:53;;;;;;;2.43;1.83;;;;;;;;;;6298364;28;20020;-76
2024/03/19 15:55:58;;;;;;;2.83;2.10;;;;;;;;;;6303627;28;20020;-76
2024/03/19 15:58:58;;;;;;;2.63;2.05;;;;;;;;;;6322834;28;20070;-77
2024/03/19 16:01:59;;;;;;;3.08;1.77;;;;;;;;;;6320352;28;20077;-77
2024/03/19 16:04:59;;;;;;;2.27;2.00;;;;;;;;;;6320139;28;20107;-77
2024/03/19 16:08:00;;;;;;;2.13;1.93;;;;;;;;;;6296711;28;20465;-76
2024/03/19 16:11:00;;;;;;;1.97;1.73;;;;;;;;;;6322968;28;20419;-76
2024/03/19 16:14:00;;;;;;;2.10;1.73;;;;;;;;;;6322243;28;20115;-76
2024/03/19 16:17:01;;;;;;;1.87;1.70;;;;;;;;;;6316169;28;20451;-77
2024/03/19 16:20:05;;;;;;;1.95;1.73;;;;;;;;;;6315758;28;20111;-77
2024/03/19 16:23:06;;;;;;;2.05;1.65;;;;;;;;;;6314607;28;20040;-77
2024/03/19 16:26:06;;;;;;;1.97;1.80;;;;;;;;;;6322653;28;20113;-76
2024/03/19 16:29:07;;;;;;;2.00;1.70;;;;;;;;;;6322420;28;20024;-76
2024/03/19 16:32:08;;;;;;;2.55;2.05;;;;;;;;;;6300850;28;20024;-76
2024/03/19 16:35:08;;;;;;;1.50;1.37;;;;;;;;;;6319898;28;20031;-76
2024/03/19 16:38:08;;;;;;;2.60;2.00;;;;;;;;;;6321017;28;20484;-76
2024/03/19 16:41:08;;;;;;;2.13;1.73;;;;;;;;;;6304022;28;20063;-76
2024/03/19 16:44:09;;;;;;;1.70;1.50;;;;;;;;;;6306456;28;20112;-77
2024/03/19 16:47:09;;;;;;;1.97;1.53;;;;;;;;;;6320519;28;20051;-76
2024/03/19 16:50:10;;;;;;;1.77;1.47;;;;;;;;;;6321845;28;20449;-76
2024/03/19 16:53:10;;;;;;;1.50;1.40;;;;;;;;;;6321642;28;20032;-76
2024/03/19 16:56:10;;;;;;;2.10;1.33;;;;;;;;;;6316415;28;20149;-76
2024/03/19 16:59:12;;;;;;;1.60;1.30;;;;;;;;;;6319844;28;20380;-75
2024/03/19 17:02:17;;;;;;;1.70;1.40;;;;;;;;;;6320954;28;20012;-76
2024/03/19 17:05:18;;;;;;;2.05;1.70;;;;;;;;;;6321906;28;20483;-76
2024/03/19 17:08:19;;;;;;;2.30;1.80;;;;;;;;;;6322434;28;20055;-75
2024/03/19 17:11:19;;;;;;;2.42;1.75;;;;;;;;;;6303753;28;20027;-76
2024/03/19 17:14:20;;;;;;;1.73;1.63;;;;;;;;;;6311216;28;20143;-74
2024/03/19 17:17:20;;;;;;;1.80;1.33;;;;;;;;;;6314733;28;20020;-75
2024/03/19 17:20:20;;;;;;;1.80;1.47;;;;;;;;;;6316420;28;20258;-75
2024/03/19 17:23:21;;;;;;;1.90;1.47;;;;;;;;;;6315644;28;20070;-75
2024/03/19 17:26:21;;;;;;;2.43;1.70;;;;;;;;;;6319075;28;20052;-75
2024/03/19 17:29:21;;;;;;;1.53;1.30;;;;;;;;;;6319523;28;20032;-75
2024/03/19 17:32:21;;;;;;;4.23;1.80;;;;;;;;;;6311038;28;20126;-75
2024/03/19 17:35:22;;;;;;;2.60;1.90;;;;;;;;;;6318401;28;20380;-79
2024/03/19 17:38:22;;;;;;;1.83;1.60;;;;;;;;;;6318091;28;20077;-78
2024/03/19 17:41:22;;;;;;;4.47;2.00;;;;;;;;;;6322356;28;20392;-78
2024/03/19 17:44:23;;;;;;;3.57;2.07;;;;;;;;;;6318900;28;20033;-79
2024/03/19 17:47:23;;;;;;;2.40;2.00;;;;;;;;;;6318392;28;20045;-78
2024/03/19 17:50:24;;;;;;;2.07;1.60;;;;;;;;;;6323205;28;20020;-77
2024/03/19 17:53:25;;;;;;;2.17;1.80;;;;;;;;;;6324717;28;20036;-79
2024/03/19 17:56:26;;;;;;;2.30;1.98;;;;;;;;;;6324214;28;20020;-74
2024/03/19 17:59:26;;;;;;;2.50;2.00;;;;;;;;;;6324458;28;20034;-75
2024/03/19 18:02:27;;;;;;;2.27;1.83;;;;;;;;;;6313363;28;20306;-75